Aleppo, Pennsylvania
Current Conditions -  °F | °C
As of 3:53 PM on Sunday 21 Dec 2014 (Local Time) from KHLG Reporting Station
Scattered Clouds Scattered Clouds  
Wind Chill: 29°   Ceiling: Unl
Heat Index: 34°   Visibility: 10mi
Dew Point: 22°   Wind: 6mph
Humidity: 61%   Direction: 30°NNE
Pressure: 30.22"   Gusts: NA
Location:  39.82°N, 80.45°W
Report Text: KHLG 212053Z 03005KT 10SM SCT028 01/M06 A3022 RMK AO2 SLP251 T00111056 55010
Loading
Personal Weather Stations






























Interactive Weather Map New forecast layout! Learn more

10-Day Weather Forecast

Advertisements
Track Severe Weather on mobile